Time;durP1;ratioP1;P1;durP2;ratioP2;P2;SDS_P1;SDS_P2;PMS_P1;PMS_P2;Temp;Humidity;BMP_temperature;BMP_pressure;BME280_temperature;BME280_humidity;BME280_pressure;Samples;Min_cycle;Max_cycle;Signal;HPM_P1;HPM_P2
2021/03/11 00:01:34;;;;;;;17.83;15.70;;;4.80;99.90;;;5.64;67.72;97511.91;5185910;28;20252;-61
2021/03/11 00:04:06;;;;;;;17.57;15.70;;;4.80;99.90;;;5.59;67.61;97503.09;5184609;28;20464;-61
2021/03/11 00:06:38;;;;;;;20.43;16.13;;;4.70;99.90;;;5.70;67.57;97505.50;5183679;28;20663;-61
2021/03/11 00:09:10;;;;;;;18.77;15.87;;;4.80;99.90;;;5.62;67.52;97507.50;5182073;28;20205;-60
2021/03/11 00:11:42;;;;;;;18.07;15.80;;;4.80;99.90;;;5.63;67.54;97500.00;5185155;28;20222;-61
2021/03/11 00:14:15;;;;;;;17.57;15.27;;;4.80;99.90;;;5.63;68.12;97500.00;5185608;28;20199;-61
2021/03/11 00:16:47;;;;;;;15.70;14.20;;;4.80;99.90;;;5.69;67.84;97494.47;5185525;28;20237;-61
2021/03/11 00:19:19;;;;;;;19.43;15.33;;;4.80;99.90;;;5.65;68.18;97500.09;5183487;28;20290;-61
2021/03/11 00:21:51;;;;;;;16.97;14.50;;;4.80;99.90;;;5.71;67.57;97498.00;5184327;28;20693;-61
2021/03/11 00:24:24;;;;;;;19.13;15.17;;;4.80;99.90;;;5.65;68.12;97500.09;5182073;28;20201;-61
2021/03/11 00:26:56;;;;;;;17.00;15.20;;;4.80;99.90;;;5.67;68.63;97501.09;5176316;28;20282;-61
2021/03/11 00:29:29;;;;;;;17.90;15.33;;;4.80;99.90;;;5.64;68.43;97495.81;5178910;28;20206;-61
2021/03/11 00:32:01;;;;;;;22.17;19.30;;;4.80;99.90;;;5.65;68.67;97500.09;5168092;28;20323;-61
2021/03/11 00:34:33;;;;;;;23.77;19.73;;;4.80;99.90;;;5.69;68.53;97504.59;5183549;28;20199;-60
2021/03/11 00:37:05;;;;;;;22.07;17.70;;;4.80;99.90;;;5.73;68.36;97500.66;5185713;28;20226;-60
2021/03/11 00:39:37;;;;;;;23.17;19.10;;;4.90;99.90;;;5.80;68.60;97497.75;5177404;28;20194;-61
2021/03/11 00:42:09;;;;;;;24.27;20.37;;;4.80;99.90;;;5.76;68.62;97506.81;5184695;28;20225;-60
2021/03/11 00:44:42;;;;;;;23.07;19.53;;;4.80;99.90;;;5.76;68.28;97498.34;5185259;28;20209;-61
2021/03/11 00:47:16;;;;;;;28.70;21.23;;;4.90;99.90;;;5.69;68.52;97499.53;5184489;28;20293;-60
2021/03/11 00:49:49;;;;;;;30.97;23.67;;;4.80;99.90;;;5.67;69.00;97496.03;5182235;28;20594;-61
2021/03/11 00:52:21;;;;;;;27.30;22.53;;;4.80;99.90;;;5.68;69.34;97497.78;5184409;28;20228;-61
2021/03/11 00:54:53;;;;;;;30.03;23.80;;;4.80;99.90;;;5.58;69.60;97496.28;5182781;28;20224;-60
2021/03/11 00:57:25;;;;;;;21.90;19.00;;;4.80;99.90;;;5.63;69.29;97479.72;5190250;28;20554;-60
2021/03/11 00:59:58;;;;;;;19.60;17.50;;;4.70;99.90;;;5.65;69.94;97482.38;5168258;28;20200;-61
2021/03/11 01:02:30;;;;;;;23.87;20.30;;;4.80;99.90;;;5.57;70.15;97478.41;5182597;28;20218;-61
2021/03/11 01:05:03;;;;;;;23.47;18.50;;;4.70;99.90;;;5.62;69.70;97477.09;5184529;28;20259;-61
2021/03/11 01:07:35;;;;;;;14.97;13.37;;;4.70;99.90;;;5.73;70.19;97486.31;5165695;28;20198;-60
2021/03/11 01:10:10;;;;;;;13.60;11.97;;;4.70;99.90;;;5.75;70.31;97484.78;5185328;28;20201;-61
2021/03/11 01:12:42;;;;;;;13.50;11.37;;;4.80;99.90;;;5.71;69.92;97487.84;5179829;28;20202;-60
2021/03/11 01:15:15;;;;;;;13.50;12.20;;;4.80;99.90;;;5.69;69.92;97484.31;5165145;28;20210;-61
2021/03/11 01:17:47;;;;;;;13.37;11.87;;;4.80;99.90;;;5.69;69.97;97493.59;5173525;28;20684;-61
2021/03/11 01:20:20;;;;;;;14.57;12.40;;;4.80;99.90;;;5.75;69.45;97479.72;5182579;28;20206;-61
2021/03/11 01:22:52;;;;;;;13.53;12.07;;;4.80;99.90;;;5.81;69.93;97485.19;5183227;28;20205;-61
2021/03/11 01:25:24;;;;;;;14.73;13.23;;;4.80;99.90;;;5.77;69.95;97478.13;5174317;28;20206;-61
2021/03/11 01:27:56;;;;;;;13.60;12.17;;;4.80;99.90;;;5.71;70.07;97471.78;5195110;28;20245;-61
2021/03/11 01:30:29;;;;;;;15.23;13.43;;;4.80;99.90;;;5.72;69.78;97458.31;5183078;28;20292;-61
2021/03/11 01:33:01;;;;;;;15.70;13.77;;;4.80;99.90;;;5.69;69.83;97458.97;5184871;28;20292;-61
2021/03/11 01:35:33;;;;;;;15.00;13.40;;;4.80;99.90;;;5.69;70.34;97451.38;5183113;28;20201;-60
2021/03/11 01:38:06;;;;;;;14.17;12.67;;;4.80;99.90;;;5.76;70.32;97451.03;5177625;28;20317;-61
2021/03/11 01:40:38;;;;;;;15.77;13.07;;;4.80;99.90;;;5.73;70.42;97439.81;5168927;28;20729;-61
2021/03/11 01:43:10;;;;;;;14.27;12.77;;;4.80;99.90;;;5.55;70.38;97444.47;5174954;28;20213;-61
2021/03/11 01:45:43;;;;;;;15.10;13.53;;;4.70;99.90;;;5.61;70.96;97444.91;5191029;28;20194;-61
2021/03/11 01:48:15;;;;;;;13.83;12.40;;;4.80;99.90;;;5.82;67.40;97427.75;5188316;28;20197;-60
2021/03/11 01:50:47;;;;;;;16.93;13.50;;;4.90;99.90;;;5.86;67.56;97448.31;5189219;28;20231;-60
2021/03/11 01:53:19;;;;;;;15.90;14.10;;;5.20;99.90;;;6.18;66.79;97447.16;5189580;28;20528;-61
2021/03/11 01:55:51;;;;;;;14.00;12.60;;;5.30;99.90;;;6.46;65.73;97433.75;5181294;28;20206;-61
2021/03/11 01:58:23;;;;;;;13.73;12.33;;;5.60;99.90;;;6.50;65.84;97431.50;5201717;28;20198;-61
2021/03/11 02:00:56;;;;;;;12.87;11.57;;;5.80;99.90;;;6.71;65.54;97406.63;5190199;28;20218;-61
2021/03/11 02:03:28;;;;;;;13.13;10.90;;;6.10;99.90;;;6.82;65.88;97403.91;5190327;28;20859;-61
2021/03/11 02:06:02;;;;;;;13.87;11.63;;;6.30;99.90;;;6.80;64.93;97388.56;5188155;28;20198;-61
2021/03/11 02:08:34;;;;;;;12.37;11.17;;;6.30;99.90;;;7.11;64.86;97383.75;5181273;28;20202;-61
2021/03/11 02:11:12;;;;;;;12.80;11.33;;;6.50;99.90;;;7.11;63.69;97377.78;5189779;28;20218;-61
2021/03/11 02:13:50;;;;;;;11.93;10.70;;;6.50;99.90;;;7.13;63.98;97361.00;5190992;28;20297;-61
2021/03/11 02:16:30;;;;;;;12.33;10.97;;;6.60;99.90;;;7.19;64.37;97351.19;5190214;28;20222;-61
2021/03/11 02:19:10;;;;;;;12.60;11.07;;;6.60;99.90;;;7.33;63.91;97352.06;5189959;28;20224;-61
2021/03/11 02:21:46;;;;;;;12.57;11.13;;;6.70;99.90;;;7.35;63.45;97345.38;5188215;28;20255;-61
2021/03/11 02:24:36;;;;;;;12.37;11.07;;;6.70;99.90;;;7.34;63.79;97331.78;5189359;28;20289;-61
2021/03/11 02:27:30;;;;;;;11.77;10.57;;;6.70;99.90;;;7.40;63.14;97321.13;5190406;28;20202;-61
2021/03/11 02:30:05;;;;;;;11.77;10.57;;;6.70;99.90;;;7.41;63.18;97310.16;5190792;28;20207;-61
2021/03/11 02:32:41;;;;;;;11.57;10.47;;;6.70;99.90;;;7.39;63.28;97301.56;5184389;28;20222;-61
2021/03/11 02:35:14;;;;;;;11.47;10.20;;;6.70;99.90;;;7.41;63.28;97288.16;5188317;28;20301;-61
2021/03/11 02:37:51;;;;;;;11.27;10.10;;;6.70;99.90;;;7.44;63.28;97279.84;5183737;28;20229;-61
2021/03/11 02:40:27;;;;;;;11.17;10.17;;;6.70;99.90;;;7.44;62.80;97282.41;5180825;28;20210;-61
2021/03/11 02:43:03;;;;;;;11.10;9.90;;;6.70;99.90;;;7.46;62.88;97273.16;5197739;28;20206;-61
2021/03/11 02:45:36;;;;;;;11.70;9.90;;;6.70;99.90;;;7.47;62.88;97267.31;5189898;28;20195;-62
2021/03/11 02:48:11;;;;;;;11.70;10.40;;;6.70;99.90;;;7.47;62.98;97274.94;5188983;28;20199;-61
2021/03/11 02:50:43;;;;;;;12.43;9.93;;;6.70;99.90;;;7.49;62.80;97263.19;5188788;28;20218;-61
2021/03/11 02:53:16;;;;;;;11.80;10.60;;;6.70;99.90;;;7.50;62.51;97258.97;5186075;28;20195;-61
2021/03/11 02:55:49;;;;;;;11.87;10.63;;;6.70;99.90;;;7.52;62.76;97243.00;5176145;28;20294;-60
2021/03/11 02:58:21;;;;;;;11.63;10.43;;;6.70;99.90;;;7.53;62.86;97242.25;5179482;28;20215;-61
2021/03/11 03:00:54;;;;;;;11.20;10.10;;;6.70;99.90;;;7.53;62.70;97246.47;5186871;28;20778;-61
2021/03/11 03:03:28;;;;;;;12.37;10.43;;;6.70;99.90;;;7.54;62.46;97228.72;5184816;28;20257;-61
2021/03/11 03:06:01;;;;;;;11.70;10.53;;;6.70;99.90;;;7.58;62.01;97234.88;5183989;28;20198;-61
2021/03/11 03:08:35;;;;;;;12.20;10.93;;;6.70;99.90;;;7.52;62.08;97232.84;5182978;28;20207;-61
2021/03/11 03:11:07;;;;;;;11.27;10.10;;;6.70;99.90;;;7.54;62.30;97222.78;5180371;28;20214;-61
2021/03/11 03:13:42;;;;;;;11.93;10.60;;;6.70;99.90;;;7.54;62.30;97217.69;5191745;28;20205;-61
2021/03/11 03:16:17;;;;;;;11.83;10.63;;;6.70;99.90;;;7.54;62.22;97208.38;5186944;28;20198;-61
2021/03/11 03:18:49;;;;;;;12.03;10.83;;;6.70;99.90;;;7.54;62.09;97203.31;5180240;28;20212;-61
2021/03/11 03:21:22;;;;;;;11.80;10.63;;;6.70;99.90;;;7.56;62.33;97201.75;5186571;28;20233;-61
2021/03/11 03:23:56;;;;;;;12.30;11.03;;;6.70;99.90;;;7.58;62.25;97197.63;5184195;28;20199;-61
2021/03/11 03:26:28;;;;;;;11.87;10.67;;;6.70;99.90;;;7.57;61.92;97190.75;5169013;28;20199;-59
2021/03/11 03:29:00;;;;;;;11.63;10.40;;;6.70;99.90;;;7.58;62.53;97182.38;5173016;28;20203;-61
2021/03/11 03:31:33;;;;;;;11.30;10.20;;;6.70;99.90;;;7.59;63.04;97183.25;5166687;28;20711;-61
2021/03/11 03:34:05;;;;;;;12.43;11.13;;;6.70;99.90;;;7.59;62.90;97181.56;5209022;23;20803;-61
2021/03/11 03:36:37;;;;;;;13.13;11.80;;;6.70;99.90;;;7.58;63.29;97167.13;5206270;28;20234;-61
2021/03/11 03:39:10;;;;;;;11.70;10.27;;;6.70;99.90;;;7.59;63.32;97165.44;5205495;28;20648;-62
2021/03/11 03:41:48;;;;;;;13.30;11.47;;;6.70;99.90;;;7.60;63.06;97172.28;5206948;28;20202;-61
2021/03/11 03:44:22;;;;;;;11.83;10.63;;;6.70;99.90;;;7.62;63.66;97168.16;5207298;28;20685;-56
2021/03/11 03:46:56;;;;;;;12.23;11.03;;;6.70;99.90;;;7.64;63.09;97164.91;5178834;28;20285;-58
2021/03/11 03:49:29;;;;;;;13.60;12.20;;;6.70;99.90;;;7.61;62.20;97167.28;5184055;28;20210;-59
2021/03/11 03:52:03;;;;;;;13.53;11.97;;;6.70;99.90;;;7.66;61.48;97163.31;5174176;28;20211;-59
2021/03/11 03:54:40;;;;;;;13.77;12.10;;;6.70;99.90;;;7.76;60.03;97157.09;5183991;28;20258;-59
2021/03/11 03:57:16;;;;;;;13.10;11.37;;;6.80;99.90;;;7.84;58.94;97160.06;5173447;28;20757;-58
2021/03/11 03:59:51;;;;;;;12.27;11.07;;;6.90;99.90;;;7.90;60.48;97162.97;5185766;28;20202;-59
2021/03/11 04:02:25;;;;;;;12.27;10.97;;;6.90;99.90;;;7.78;61.94;97164.78;5174358;28;20202;-59
2021/03/11 04:04:58;;;;;;;12.47;11.17;;;6.80;99.90;;;7.73;63.47;97168.78;5182175;28;20207;-62
2021/03/11 04:07:31;;;;;;;12.60;11.17;;;6.80;99.90;;;7.55;65.53;97154.19;5184766;28;20205;-62
2021/03/11 04:10:06;;;;;;;12.80;11.47;;;6.70;99.90;;;7.39;66.35;97159.22;5182356;28;20202;-61
2021/03/11 04:12:40;;;;;;;14.27;12.17;;;6.60;99.90;;;7.31;66.61;97158.75;5175549;28;20639;-61
2021/03/11 04:15:12;;;;;;;12.20;11.00;;;6.60;99.90;;;7.25;67.19;97157.53;5180471;28;20542;-61
2021/03/11 04:17:46;;;;;;;12.67;11.40;;;6.50;99.90;;;7.20;68.22;97155.59;5172764;28;20313;-62
2021/03/11 04:20:19;;;;;;;13.60;12.23;;;6.50;99.90;;;7.22;69.01;97148.94;5179503;28;20693;-61
2021/03/11 04:22:54;;;;;;;13.23;11.53;;;6.50;99.90;;;7.20;68.84;97145.41;5184718;28;20218;-57
2021/03/11 04:25:26;;;;;;;13.83;12.33;;;6.50;99.90;;;7.21;69.27;97147.19;5178876;28;20551;-57
2021/03/11 04:27:59;;;;;;;12.90;11.60;;;6.40;99.90;;;7.22;69.74;97143.84;5182593;28;20635;-58
2021/03/11 04:30:31;;;;;;;13.73;12.23;;;6.40;99.90;;;7.16;70.07;97143.50;5186362;28;20198;-59
2021/03/11 04:33:05;;;;;;;13.43;11.93;;;6.40;99.90;;;7.13;70.59;97150.94;5175222;28;20231;-61
2021/03/11 04:35:38;;;;;;;13.03;11.63;;;6.40;99.90;;;7.26;71.85;97152.53;5172094;28;20202;-60
2021/03/11 04:38:10;;;;;;;13.10;11.90;;;6.30;99.90;;;7.16;71.67;97156.22;5165323;28;20574;-61
2021/03/11 04:40:42;;;;;;;13.30;12.00;;;6.30;99.90;;;7.22;71.67;97148.94;5175891;28;20202;-61
2021/03/11 04:43:15;;;;;;;13.23;11.90;;;6.30;99.90;;;7.12;71.89;97146.63;5185072;28;20256;-61
2021/03/11 04:45:48;;;;;;;14.40;12.90;;;6.20;99.90;;;7.13;71.88;97143.31;5177483;28;20198;-62
2021/03/11 04:48:22;;;;;;;13.23;11.93;;;6.20;99.90;;;7.08;72.17;97138.75;5183867;28;20199;-61
2021/03/11 04:50:55;;;;;;;12.30;10.90;;;6.30;99.90;;;7.09;72.08;97140.50;5184032;28;20209;-62
2021/03/11 04:53:27;;;;;;;13.20;11.80;;;6.20;99.90;;;7.10;72.35;97152.44;5175253;28;20710;-61
2021/03/11 04:56:00;;;;;;;13.00;11.70;;;6.30;99.90;;;7.11;72.60;97149.97;5180031;28;20206;-59
2021/03/11 04:58:32;;;;;;;12.37;11.17;;;6.30;99.90;;;7.16;72.90;97147.72;5184559;28;20210;-59
2021/03/11 05:01:09;;;;;;;13.17;11.73;;;6.30;99.90;;;7.17;72.83;97157.94;5181092;28;20202;-57
2021/03/11 05:03:45;;;;;;;13.10;11.90;;;6.40;99.90;;;7.22;72.68;97159.09;5185251;28;20604;-59
2021/03/11 05:06:17;;;;;;;15.40;12.33;;;6.30;99.90;;;7.16;72.94;97151.13;5178866;28;20586;-59
2021/03/11 05:08:49;;;;;;;15.77;12.57;;;6.30;99.90;;;7.15;72.58;97151.91;5171357;28;20580;-59
2021/03/11 05:11:21;;;;;;;14.43;12.90;;;6.30;99.90;;;7.15;72.37;97156.09;5176479;28;20607;-58
2021/03/11 05:13:53;;;;;;;14.77;13.30;;;6.40;99.90;;;7.14;72.60;97165.41;5184065;28;20353;-58
2021/03/11 05:16:25;;;;;;;14.80;13.10;;;6.40;99.90;;;7.06;73.57;97163.19;5171742;28;20200;-59
2021/03/11 05:18:58;;;;;;;14.07;12.03;;;6.30;99.90;;;7.11;73.09;97154.19;5177537;28;20202;-59
2021/03/11 05:21:31;;;;;;;13.13;11.80;;;6.30;99.90;;;7.05;73.89;97154.69;5181287;28;20199;-59
2021/03/11 05:24:04;;;;;;;13.63;11.73;;;6.30;99.90;;;6.95;74.58;97160.91;5166179;28;20236;-60
2021/03/11 05:26:36;;;;;;;13.33;12.03;;;6.30;99.90;;;6.91;75.07;97156.41;5184099;28;20201;-60
2021/03/11 05:29:08;;;;;;;12.43;11.23;;;6.20;99.90;;;6.85;75.23;97160.25;5167587;28;20197;-60
2021/03/11 05:31:41;;;;;;;11.53;10.33;;;6.20;99.90;;;6.81;75.29;97155.75;5178837;28;20207;-60
2021/03/11 05:34:14;;;;;;;11.37;10.17;;;6.20;99.90;;;6.87;76.27;97156.16;5175222;28;20230;-58
2021/03/11 05:36:46;;;;;;;11.77;10.57;;;6.30;99.90;;;6.88;75.79;97151.16;5182275;28;20772;-59
2021/03/11 05:39:18;;;;;;;11.70;10.60;;;6.30;99.90;;;6.93;76.52;97148.91;5183402;28;20202;-59
2021/03/11 05:41:51;;;;;;;10.13;9.13;;;6.30;99.90;;;6.99;76.00;97149.25;5184274;28;20624;-59
2021/03/11 05:44:24;;;;;;;10.57;9.57;;;6.40;99.90;;;7.08;76.83;97138.75;5183790;28;20761;-59
2021/03/11 05:46:57;;;;;;;10.63;9.60;;;6.40;99.90;;;7.12;77.58;97144.09;5174971;28;20203;-58
2021/03/11 05:49:31;;;;;;;15.73;14.07;;;6.40;99.90;;;7.12;77.85;97139.00;5169606;28;20203;-60
2021/03/11 05:52:04;;;;;;;14.67;12.57;;;6.40;99.90;;;7.09;77.48;97133.75;5177993;28;20575;-60
2021/03/11 05:54:36;;;;;;;14.17;12.77;;;6.30;99.90;;;7.09;77.28;97135.41;5183863;28;20712;-59
2021/03/11 05:57:09;;;;;;;13.83;12.43;;;6.40;99.90;;;7.08;77.58;97136.22;5166640;28;20583;-60
2021/03/11 05:59:41;;;;;;;13.43;12.13;;;6.40;99.90;;;7.13;77.23;97138.25;5178981;28;20556;-60
2021/03/11 06:02:13;;;;;;;11.47;10.30;;;6.40;99.90;;;7.14;76.96;97134.91;5176017;28;20199;-59
2021/03/11 06:04:48;;;;;;;11.30;10.20;;;6.40;99.90;;;7.14;76.71;97132.34;5168358;28;20253;-60
2021/03/11 06:07:23;;;;;;;12.70;10.97;;;6.40;99.90;;;7.19;76.71;97132.63;5164025;28;20195;-59
2021/03/11 06:09:57;;;;;;;11.83;10.50;;;6.40;99.90;;;7.20;76.15;97132.72;5170305;28;20210;-60
2021/03/11 06:12:30;;;;;;;11.10;10.10;;;6.40;99.90;;;7.16;75.94;97123.16;5170109;28;20576;-60
2021/03/11 06:15:07;;;;;;;11.13;10.03;;;6.50;99.90;;;7.25;75.90;97120.28;5183658;28;20198;-59
2021/03/11 06:17:41;;;;;;;11.93;10.73;;;6.50;99.90;;;7.29;76.26;97111.16;5172685;28;20225;-60
2021/03/11 06:20:14;;;;;;;11.50;10.40;;;6.50;99.90;;;7.30;76.24;97110.41;5176681;28;20195;-60
2021/03/11 06:22:47;;;;;;;10.90;9.80;;;6.50;99.90;;;7.31;75.69;97112.13;5179000;28;20301;-60
2021/03/11 06:25:20;;;;;;;10.33;9.40;;;6.60;99.90;;;7.38;76.04;97114.22;5176205;28;20570;-60
2021/03/11 06:28:05;;;;;;;10.77;9.60;;;6.60;99.90;;;7.40;76.10;97102.47;5184699;28;20194;-60
2021/03/11 06:30:39;;;;;;;10.77;9.77;;;6.60;99.90;;;7.45;76.31;97084.16;5184720;28;20201;-60
2021/03/11 06:33:11;;;;;;;9.90;8.90;;;6.60;99.90;;;7.46;76.12;97079.94;5167973;28;20254;-59
2021/03/11 06:35:44;;;;;;;9.43;8.20;;;6.70;99.90;;;7.53;75.34;97083.72;5169874;28;20195;-60
2021/03/11 06:38:27;;;;;;;8.17;7.37;;;6.80;99.90;;;7.60;74.33;97075.63;5175340;28;20756;-60
2021/03/11 06:41:00;;;;;;;7.40;6.70;;;6.90;99.90;;;7.71;73.43;97058.44;5187344;28;20201;-60
2021/03/11 06:43:32;;;;;;;9.00;8.10;;;7.10;99.90;;;7.84;73.08;97065.91;5182967;28;20223;-60
2021/03/11 06:46:08;;;;;;;10.10;9.13;;;7.20;99.90;;;7.91;73.39;97062.94;5168940;28;20343;-60
2021/03/11 06:48:42;;;;;;;10.57;8.90;;;7.20;99.90;;;7.90;73.41;97061.19;5180697;28;20245;-59
2021/03/11 06:51:20;;;;;;;9.73;8.67;;;7.20;99.90;;;8.00;72.85;97053.25;5171403;28;20195;-61
2021/03/11 06:53:57;;;;;;;8.30;7.47;;;7.30;99.90;;;8.24;72.66;97050.25;5170444;28;20302;-61
2021/03/11 06:56:29;;;;;;;7.73;6.63;;;7.40;99.90;;;8.35;71.36;97051.69;5174476;28;20738;-61
2021/03/11 06:59:04;;;;;;;6.50;5.90;;;7.50;99.90;;;8.42;71.09;97058.03;5167750;28;20215;-61
2021/03/11 07:01:49;;;;;;;6.67;6.00;;;7.70;99.90;;;8.59;70.72;97061.47;5169542;28;20213;-61
2021/03/11 07:04:23;;;;;;;6.87;6.27;;;7.80;99.90;;;8.67;70.58;97063.59;5176708;28;20229;-61
2021/03/11 07:06:56;;;;;;;7.43;6.73;;;7.90;99.90;;;8.79;70.23;97058.25;5165750;28;20722;-61
2021/03/11 07:09:40;;;;;;;7.70;6.90;;;8.00;99.90;;;8.82;70.30;97063.50;5167998;28;20209;-61
2021/03/11 07:12:12;;;;;;;7.80;7.10;;;8.00;99.90;;;8.84;70.66;97054.25;5165528;28;20585;-61
2021/03/11 07:14:48;;;;;;;8.97;7.60;;;8.10;99.90;;;8.94;70.64;97048.81;5179528;28;20225;-61
2021/03/11 07:17:22;;;;;;;5.80;5.23;;;8.10;99.90;;;8.95;70.01;97047.13;5171228;28;20227;-60
2021/03/11 07:20:12;;;;;;;6.87;5.50;;;8.20;99.90;;;9.08;69.81;97043.53;5184091;28;20195;-61
2021/03/11 07:23:05;;;;;;;5.07;4.57;;;8.30;99.90;;;9.27;69.71;97046.19;5180215;28;20715;-61
2021/03/11 07:25:40;;;;;;;4.93;4.53;;;8.40;99.90;;;9.28;69.00;97045.38;5178444;28;20237;-61
2021/03/11 07:28:23;;;;;;;4.63;4.23;;;8.50;99.90;;;9.59;68.20;97049.44;5174803;28;20217;-66
2021/03/11 07:30:57;;;;;;;4.70;4.30;;;8.70;99.90;;;9.64;67.49;97047.94;5167356;28;20286;-61
2021/03/11 07:33:31;;;;;;;4.53;4.13;;;8.80;99.90;;;9.77;67.72;97036.66;5181651;28;20219;-61
2021/03/11 07:36:06;;;;;;;4.87;4.30;;;8.90;99.90;;;9.83;67.19;97027.59;5180845;28;20197;-61
2021/03/11 07:38:38;;;;;;;4.50;4.10;;;9.00;99.90;;;9.84;66.49;97031.91;5186067;28;20226;-61
2021/03/11 07:41:13;;;;;;;3.93;3.53;;;9.00;99.90;;;10.02;65.79;97033.56;5183460;28;20199;-61
2021/03/11 07:43:45;;;;;;;4.70;4.20;;;9.10;99.90;;;10.00;65.90;97035.16;5180435;28;20226;-61
2021/03/11 07:46:18;;;;;;;4.63;3.93;;;9.10;99.90;;;10.00;66.96;97032.59;5183213;28;20202;-61
2021/03/11 07:48:50;;;;;;;4.80;3.93;;;9.10;99.90;;;9.98;66.71;97040.19;5169092;28;20195;-61
2021/03/11 07:51:23;;;;;;;4.07;3.70;;;9.10;99.90;;;10.04;67.08;97034.47;5172950;28;20294;-61
2021/03/11 07:53:56;;;;;;;4.70;4.30;;;9.20;99.90;;;10.14;67.21;97021.34;5169105;28;20242;-61
2021/03/11 07:56:28;;;;;;;5.33;4.17;;;9.20;99.90;;;10.34;65.71;97029.91;5186059;28;20213;-60
2021/03/11 07:59:12;;;;;;;4.60;3.90;;;9.40;99.90;;;10.49;64.62;97030.59;5174057;28;20310;-60
2021/03/11 08:01:51;;;;;;;4.10;3.80;;;9.50;99.90;;;10.54;65.06;97023.13;5177377;28;20659;-60
2021/03/11 08:04:29;;;;;;;4.00;3.70;;;9.60;99.90;;;10.60;64.24;97028.50;5181478;28;20301;-61
2021/03/11 08:07:19;;;;;;;4.27;3.97;;;9.70;99.90;;;10.91;63.06;97010.25;5184375;28;20773;-61
2021/03/11 08:09:54;;;;;;;4.33;3.90;;;9.90;99.90;;;10.92;62.82;97006.88;5183934;28;20199;-61
2021/03/11 08:12:37;;;;;;;3.73;3.43;;;10.00;99.90;;;10.99;62.53;97014.00;5184399;28;20229;-61
2021/03/11 08:15:32;;;;;;;5.73;3.97;;;10.00;99.90;;;11.16;62.14;97017.25;5173371;28;20188;-60
2021/03/11 08:18:05;;;;;;;5.00;4.07;;;10.20;99.90;;;11.20;62.04;97008.00;5177748;28;20357;-61
2021/03/11 08:20:39;;;;;;;3.67;3.33;;;10.20;99.90;;;11.12;62.72;97010.25;5174167;28;20286;-60
2021/03/11 08:23:12;;;;;;;4.27;3.10;;;10.20;99.90;;;11.25;62.43;97006.53;5181381;28;20222;-61
2021/03/11 08:25:47;;;;;;;3.17;2.83;;;10.30;99.90;;;11.38;61.38;97005.31;5176162;28;20226;-61
2021/03/11 08:28:38;;;;;;;3.83;3.00;;;10.40;99.90;;;11.64;60.23;96988.41;5177538;28;20187;-62
2021/03/11 08:31:11;;;;;;;4.38;3.38;;;10.60;99.90;;;11.72;60.10;96995.56;5176954;28;20199;-61
2021/03/11 08:33:52;;;;;;;3.38;2.60;;;10.80;99.90;;;11.83;59.13;96992.56;5167110;28;20800;-61
2021/03/11 08:36:38;;;;;;;3.42;3.13;;;10.80;99.90;;;11.86;59.46;96997.84;5177475;28;20202;-61
2021/03/11 08:39:35;;;;;;;3.15;2.60;;;11.00;99.90;;;11.95;59.08;96982.81;5181279;28;20216;-61
2021/03/11 08:42:47;;;;;;;3.42;2.92;;;11.00;99.90;;;12.30;57.76;96986.66;5175687;28;20268;-61
2021/03/11 08:45:59;;;;;;;3.70;2.63;;;11.20;99.90;;;12.44;57.22;96984.59;5171080;28;20298;-61
2021/03/11 08:48:40;;;;;;;3.10;2.70;;;11.40;99.90;;;12.46;57.89;96957.34;5170004;28;20586;-61
2021/03/11 08:51:38;;;;;;;3.10;2.80;;;11.60;99.90;;;12.60;58.32;96963.81;5168312;28;20229;-61
2021/03/11 08:54:22;;;;;;;3.58;3.28;;;11.70;99.90;;;12.80;56.94;96948.25;5168224;28;20632;-60
2021/03/11 08:56:54;;;;;;;3.63;2.80;;;11.70;99.90;;;13.01;56.19;96951.50;5180968;28;20211;-61
2021/03/11 08:59:47;;;;;;;3.00;2.80;;;11.80;99.90;;;12.94;56.76;96934.19;5169192;28;20215;-61
2021/03/11 09:02:32;;;;;;;2.90;2.58;;;11.90;99.90;;;13.06;55.08;96921.75;5172424;28;20238;-61
2021/03/11 09:05:08;;;;;;;2.97;2.65;;;12.00;99.90;;;13.07;54.88;96910.66;5173328;28;20600;-62
2021/03/11 09:07:41;;;;;;;3.88;2.90;;;12.10;99.90;;;13.16;55.27;96911.75;5176819;28;20650;-62
2021/03/11 09:10:19;;;;;;;3.95;3.10;;;12.10;99.90;;;13.13;54.28;96906.53;5177242;28;20205;-61
2021/03/11 09:12:51;;;;;;;3.15;2.88;;;12.20;99.90;;;13.20;54.73;96903.34;5173723;28;20250;-62
2021/03/11 09:15:25;;;;;;;2.90;2.70;;;12.30;99.90;;;13.29;55.56;96908.81;5181298;28;20202;-63
2021/03/11 09:17:57;;;;;;;3.08;2.50;;;12.40;99.90;;;13.55;54.05;96916.44;5177428;28;20690;-62
2021/03/11 09:20:30;;;;;;;3.17;2.65;;;12.80;99.90;;;13.66;54.88;96912.47;5168345;28;20576;-62
2021/03/11 09:23:04;;;;;;;2.38;2.17;;;12.90;99.90;;;13.85;53.74;96907.06;5178852;28;20697;-62
2021/03/11 09:25:36;;;;;;;2.60;2.42;;;13.00;99.90;;;14.12;53.00;96906.09;5184117;28;20634;-62
2021/03/11 09:28:10;;;;;;;2.88;2.55;;;13.20;99.90;;;14.13;52.80;96923.25;5168015;28;20195;-61
2021/03/11 09:30:44;;;;;;;2.53;2.20;;;13.30;99.90;;;14.17;52.69;96920.81;5170683;28;20206;-62
2021/03/11 09:33:18;;;;;;;2.53;2.30;;;13.20;99.90;;;13.98;53.95;96933.97;5186642;23;20321;-61
2021/03/11 09:35:51;;;;;;;3.22;2.58;;;13.20;99.90;;;14.01;53.11;96922.91;5199900;28;20213;-57
2021/03/11 09:38:25;;;;;;;2.60;2.40;;;13.20;99.90;;;13.94;53.84;96927.88;5199073;28;20233;-58
2021/03/11 09:40:58;;;;;;;2.60;2.40;;;13.00;99.90;;;13.88;53.54;96935.41;5197309;28;20201;-63
2021/03/11 09:43:33;;;;;;;2.38;2.08;;;12.90;99.90;;;13.77;54.41;96918.81;5194324;28;20222;-60
2021/03/11 09:46:14;;;;;;;3.17;2.25;;;12.70;99.90;;;13.72;53.90;96930.63;5192188;28;20206;-60
2021/03/11 09:48:48;;;;;;;3.00;2.78;;;12.70;99.90;;;13.69;54.88;96926.28;5195730;28;20220;-60
2021/03/11 09:51:25;;;;;;;3.28;2.97;;;12.70;99.90;;;13.67;54.44;96930.50;5195663;28;20198;-60
2021/03/11 09:53:59;;;;;;;2.53;2.10;;;12.60;99.90;;;13.63;54.45;96925.22;5197229;28;20264;-60
2021/03/11 09:56:33;;;;;;;3.47;2.40;;;12.60;99.90;;;13.62;55.01;96914.09;5197383;28;20198;-59
2021/03/11 09:59:08;;;;;;;2.70;2.50;;;12.50;99.90;;;13.61;55.18;96902.06;5196283;28;20240;-58
2021/03/11 10:01:44;;;;;;;2.20;2.10;;;12.60;99.90;;;13.60;55.16;96910.59;5193650;28;20284;-58
2021/03/11 10:04:24;;;;;;;2.80;2.17;;;12.70;99.90;;;13.62;55.49;96902.94;5197558;28;20567;-59
2021/03/11 10:06:59;;;;;;;2.83;2.25;;;12.70;99.90;;;13.34;55.89;96891.84;5201655;28;20211;-60
2021/03/11 10:09:37;;;;;;;2.13;2.03;;;12.60;99.90;;;13.47;55.79;96895.66;5195380;28;20297;-60
2021/03/11 10:12:10;;;;;;;2.20;2.03;;;12.60;99.90;;;13.67;55.68;96894.53;5194856;28;20198;-62
2021/03/11 10:14:43;;;;;;;2.08;1.98;;;12.60;99.90;;;13.70;54.71;96881.78;5195280;28;20217;-58
2021/03/11 10:17:20;;;;;;;1.92;1.83;;;12.60;99.90;;;13.54;55.69;96894.16;5198687;28;20296;-59
2021/03/11 10:19:52;;;;;;;2.00;1.85;;;12.70;99.90;;;13.70;55.30;96889.47;5200094;28;20208;-59
2021/03/11 10:22:25;;;;;;;2.40;2.20;;;12.70;99.90;;;13.62;55.41;96883.28;5194926;28;20204;-60
2021/03/11 10:24:57;;;;;;;2.72;2.30;;;12.70;99.90;;;13.75;54.95;96875.09;5191990;28;20309;-60
2021/03/11 10:27:32;;;;;;;2.38;2.20;;;12.80;99.90;;;13.73;55.43;96871.63;5194842;28;20195;-59
2021/03/11 10:30:08;;;;;;;2.45;2.15;;;12.80;99.90;;;13.92;55.22;96860.16;5201655;28;20688;-56
2021/03/11 10:32:43;;;;;;;2.75;2.33;;;12.90;99.90;;;13.85;54.74;96863.41;5191898;28;20205;-60
2021/03/11 10:35:27;;;;;;;2.05;1.90;;;12.90;99.90;;;13.92;55.16;96856.72;5206704;28;20649;-60
2021/03/11 10:38:14;;;;;;;2.15;2.00;;;12.90;99.90;;;14.00;54.85;96859.50;5200031;28;20224;-58
2021/03/11 10:40:48;;;;;;;2.17;2.03;;;13.10;99.90;;;14.15;54.01;96875.34;5193629;28;20206;-58
2021/03/11 10:43:23;;;;;;;2.30;2.00;;;13.00;99.90;;;13.95;55.21;96860.22;5197865;28;20201;-57
2021/03/11 10:45:56;;;;;;;2.13;1.80;;;13.00;99.90;;;14.05;54.49;96853.66;5204222;28;20574;-57
2021/03/11 10:48:29;;;;;;;2.33;1.85;;;13.00;99.90;;;14.04;54.53;96851.03;5200021;28;20198;-59
2021/03/11 10:51:01;;;;;;;2.00;1.90;;;13.10;99.90;;;14.02;55.16;96847.56;5188993;28;20205;-57
2021/03/11 10:53:39;;;;;;;2.35;1.85;;;13.10;99.90;;;14.17;54.30;96850.56;5197455;28;20235;-57